sensor_id;sensor_type;location;lat;lon;timestamp;P1;durP1;ratioP1;P2;durP2;ratioP2
37715;SDS011;23562;50.540;12.504;2023-05-07T00:01:06;36.83;;;26.08;;
37715;SDS011;23562;50.540;12.504;2023-05-07T00:03:32;39.90;;;27.90;;
37715;SDS011;23562;50.540;12.504;2023-05-07T00:05:57;47.88;;;30.98;;
37715;SDS011;23562;50.540;12.504;2023-05-07T00:08:22;42.20;;;29.83;;
37715;SDS011;23562;50.540;12.504;2023-05-07T00:10:47;48.67;;;32.17;;
37715;SDS011;23562;50.540;12.504;2023-05-07T00:13:12;45.65;;;30.33;;
37715;SDS011;23562;50.540;12.504;2023-05-07T00:15:38;48.22;;;32.80;;
37715;SDS011;23562;50.540;12.504;2023-05-07T00:18:03;46.53;;;31.10;;
37715;SDS011;23562;50.540;12.504;2023-05-07T00:20:28;47.35;;;31.90;;
37715;SDS011;23562;50.540;12.504;2023-05-07T00:22:53;46.90;;;32.30;;
37715;SDS011;23562;50.540;12.504;2023-05-07T00:25:18;51.17;;;31.55;;
37715;SDS011;23562;50.540;12.504;2023-05-07T00:27:44;45.08;;;31.27;;
37715;SDS011;23562;50.540;12.504;2023-05-07T00:30:10;50.30;;;30.52;;
37715;SDS011;23562;50.540;12.504;2023-05-07T00:32:35;53.08;;;33.78;;
37715;SDS011;23562;50.540;12.504;2023-05-07T00:35:01;48.83;;;33.78;;
37715;SDS011;23562;50.540;12.504;2023-05-07T00:37:26;53.08;;;33.97;;
37715;SDS011;23562;50.540;12.504;2023-05-07T00:39:51;53.53;;;33.63;;
37715;SDS011;23562;50.540;12.504;2023-05-07T00:42:16;52.30;;;33.28;;
37715;SDS011;23562;50.540;12.504;2023-05-07T00:44:41;48.72;;;33.53;;
37715;SDS011;23562;50.540;12.504;2023-05-07T00:47:07;53.38;;;34.45;;
37715;SDS011;23562;50.540;12.504;2023-05-07T00:49:39;50.10;;;33.83;;
37715;SDS011;23562;50.540;12.504;2023-05-07T00:52:05;55.83;;;35.00;;
37715;SDS011;23562;50.540;12.504;2023-05-07T00:54:31;56.75;;;36.30;;
37715;SDS011;23562;50.540;12.504;2023-05-07T00:56:57;53.45;;;34.03;;
37715;SDS011;23562;50.540;12.504;2023-05-07T00:59:22;56.50;;;35.95;;
37715;SDS011;23562;50.540;12.504;2023-05-07T01:01:47;58.15;;;35.70;;
37715;SDS011;23562;50.540;12.504;2023-05-07T01:04:12;53.17;;;34.67;;
37715;SDS011;23562;50.540;12.504;2023-05-07T01:06:37;58.45;;;36.00;;
37715;SDS011;23562;50.540;12.504;2023-05-07T01:09:02;58.13;;;35.13;;
37715;SDS011;23562;50.540;12.504;2023-05-07T01:11:29;54.55;;;36.40;;
37715;SDS011;23562;50.540;12.504;2023-05-07T01:13:54;59.45;;;37.65;;
37715;SDS011;23562;50.540;12.504;2023-05-07T01:16:19;53.37;;;35.93;;
37715;SDS011;23562;50.540;12.504;2023-05-07T01:18:45;60.75;;;35.95;;
37715;SDS011;23562;50.540;12.504;2023-05-07T01:21:13;53.53;;;35.58;;
37715;SDS011;23562;50.540;12.504;2023-05-07T01:23:40;55.92;;;36.47;;
37715;SDS011;23562;50.540;12.504;2023-05-07T01:26:06;54.63;;;35.53;;
37715;SDS011;23562;50.540;12.504;2023-05-07T01:28:31;51.17;;;34.63;;
37715;SDS011;23562;50.540;12.504;2023-05-07T01:30:58;54.67;;;35.30;;
37715;SDS011;23562;50.540;12.504;2023-05-07T01:33:25;55.33;;;35.20;;
37715;SDS011;23562;50.540;12.504;2023-05-07T01:35:51;53.47;;;34.38;;
37715;SDS011;23562;50.540;12.504;2023-05-07T01:38:18;54.38;;;33.58;;
37715;SDS011;23562;50.540;12.504;2023-05-07T01:40:43;53.72;;;34.80;;
37715;SDS011;23562;50.540;12.504;2023-05-07T01:43:08;53.60;;;34.77;;
37715;SDS011;23562;50.540;12.504;2023-05-07T01:45:34;53.47;;;36.15;;
37715;SDS011;23562;50.540;12.504;2023-05-07T01:47:59;53.38;;;35.22;;
37715;SDS011;23562;50.540;12.504;2023-05-07T01:50:25;59.20;;;35.17;;
37715;SDS011;23562;50.540;12.504;2023-05-07T01:52:50;48.55;;;33.63;;
37715;SDS011;23562;50.540;12.504;2023-05-07T01:55:16;49.35;;;33.38;;
37715;SDS011;23562;50.540;12.504;2023-05-07T01:57:41;49.22;;;32.70;;
37715;SDS011;23562;50.540;12.504;2023-05-07T02:00:06;48.80;;;31.70;;
37715;SDS011;23562;50.540;12.504;2023-05-07T02:02:31;49.10;;;32.63;;
37715;SDS011;23562;50.540;12.504;2023-05-07T02:04:57;48.50;;;32.67;;
37715;SDS011;23562;50.540;12.504;2023-05-07T02:07:22;46.33;;;31.93;;
37715;SDS011;23562;50.540;12.504;2023-05-07T02:09:47;50.10;;;32.33;;
37715;SDS011;23562;50.540;12.504;2023-05-07T02:12:12;45.25;;;30.48;;
37715;SDS011;23562;50.540;12.504;2023-05-07T02:14:37;45.22;;;31.27;;
37715;SDS011;23562;50.540;12.504;2023-05-07T02:17:02;44.53;;;30.38;;
37715;SDS011;23562;50.540;12.504;2023-05-07T02:19:27;43.00;;;30.10;;
37715;SDS011;23562;50.540;12.504;2023-05-07T02:21:53;46.22;;;31.42;;
37715;SDS011;23562;50.540;12.504;2023-05-07T02:24:18;52.20;;;33.13;;
37715;SDS011;23562;50.540;12.504;2023-05-07T02:26:43;51.60;;;32.30;;
37715;SDS011;23562;50.540;12.504;2023-05-07T02:29:08;45.38;;;30.17;;
37715;SDS011;23562;50.540;12.504;2023-05-07T02:31:33;49.63;;;31.33;;
37715;SDS011;23562;50.540;12.504;2023-05-07T02:34:01;51.10;;;32.80;;
37715;SDS011;23562;50.540;12.504;2023-05-07T02:36:27;54.45;;;33.70;;
37715;SDS011;23562;50.540;12.504;2023-05-07T02:38:52;53.13;;;32.63;;
37715;SDS011;23562;50.540;12.504;2023-05-07T02:41:17;51.35;;;33.38;;
37715;SDS011;23562;50.540;12.504;2023-05-07T02:43:42;50.57;;;33.40;;
37715;SDS011;23562;50.540;12.504;2023-05-07T02:46:08;52.33;;;33.53;;
37715;SDS011;23562;50.540;12.504;2023-05-07T02:48:33;52.97;;;33.38;;
37715;SDS011;23562;50.540;12.504;2023-05-07T02:50:59;57.22;;;34.75;;
37715;SDS011;23562;50.540;12.504;2023-05-07T02:53:24;58.50;;;34.78;;
37715;SDS011;23562;50.540;12.504;2023-05-07T02:55:54;55.35;;;33.97;;
37715;SDS011;23562;50.540;12.504;2023-05-07T02:58:20;57.80;;;36.00;;
37715;SDS011;23562;50.540;12.504;2023-05-07T03:00:45;59.72;;;36.08;;
37715;SDS011;23562;50.540;12.504;2023-05-07T03:03:10;72.78;;;39.08;;
37715;SDS011;23562;50.540;12.504;2023-05-07T03:05:35;60.92;;;36.65;;
37715;SDS011;23562;50.540;12.504;2023-05-07T03:08:01;64.90;;;36.67;;
37715;SDS011;23562;50.540;12.504;2023-05-07T03:10:26;65.18;;;36.65;;
37715;SDS011;23562;50.540;12.504;2023-05-07T03:12:51;61.65;;;36.47;;
37715;SDS011;23562;50.540;12.504;2023-05-07T03:15:16;61.80;;;37.13;;
37715;SDS011;23562;50.540;12.504;2023-05-07T03:17:41;60.08;;;35.92;;
37715;SDS011;23562;50.540;12.504;2023-05-07T03:20:07;56.88;;;34.55;;
37715;SDS011;23562;50.540;12.504;2023-05-07T03:22:32;56.97;;;35.17;;
37715;SDS011;23562;50.540;12.504;2023-05-07T03:24:57;56.87;;;34.67;;
37715;SDS011;23562;50.540;12.504;2023-05-07T03:27:22;56.87;;;33.67;;
37715;SDS011;23562;50.540;12.504;2023-05-07T03:29:48;53.80;;;33.33;;
37715;SDS011;23562;50.540;12.504;2023-05-07T03:32:13;56.10;;;34.05;;
37715;SDS011;23562;50.540;12.504;2023-05-07T03:34:38;52.88;;;33.03;;
37715;SDS011;23562;50.540;12.504;2023-05-07T03:37:03;67.40;;;34.10;;
37715;SDS011;23562;50.540;12.504;2023-05-07T03:39:28;55.28;;;32.72;;
37715;SDS011;23562;50.540;12.504;2023-05-07T03:41:54;48.80;;;31.20;;
37715;SDS011;23562;50.540;12.504;2023-05-07T03:44:19;45.15;;;30.70;;
37715;SDS011;23562;50.540;12.504;2023-05-07T03:46:45;52.07;;;30.33;;
37715;SDS011;23562;50.540;12.504;2023-05-07T03:49:10;54.78;;;32.88;;
37715;SDS011;23562;50.540;12.504;2023-05-07T03:51:35;60.80;;;33.58;;
37715;SDS011;23562;50.540;12.504;2023-05-07T03:54:01;51.13;;;32.67;;
37715;SDS011;23562;50.540;12.504;2023-05-07T03:56:26;55.37;;;32.17;;
37715;SDS011;23562;50.540;12.504;2023-05-07T03:58:52;47.95;;;30.20;;
37715;SDS011;23562;50.540;12.504;2023-05-07T04:01:17;50.95;;;31.35;;
37715;SDS011;23562;50.540;12.504;2023-05-07T04:03:43;48.77;;;29.67;;
37715;SDS011;23562;50.540;12.504;2023-05-07T04:06:08;51.13;;;30.50;;
37715;SDS011;23562;50.540;12.504;2023-05-07T04:08:33;48.88;;;29.95;;
37715;SDS011;23562;50.540;12.504;2023-05-07T04:10:58;50.83;;;29.95;;
37715;SDS011;23562;50.540;12.504;2023-05-07T04:13:24;49.78;;;30.20;;
37715;SDS011;23562;50.540;12.504;2023-05-07T04:15:49;45.67;;;28.83;;
37715;SDS011;23562;50.540;12.504;2023-05-07T04:18:14;50.63;;;28.88;;
37715;SDS011;23562;50.540;12.504;2023-05-07T04:20:40;44.53;;;28.45;;
37715;SDS011;23562;50.540;12.504;2023-05-07T04:23:05;42.63;;;27.87;;
37715;SDS011;23562;50.540;12.504;2023-05-07T04:25:30;45.90;;;27.13;;
37715;SDS011;23562;50.540;12.504;2023-05-07T04:27:55;42.83;;;27.47;;
37715;SDS011;23562;50.540;12.504;2023-05-07T04:30:21;45.95;;;27.02;;
37715;SDS011;23562;50.540;12.504;2023-05-07T04:32:46;46.78;;;27.80;;
37715;SDS011;23562;50.540;12.504;2023-05-07T04:35:11;43.58;;;26.30;;
37715;SDS011;23562;50.540;12.504;2023-05-07T04:37:36;37.25;;;24.70;;
37715;SDS011;23562;50.540;12.504;2023-05-07T04:40:01;35.38;;;23.80;;
37715;SDS011;23562;50.540;12.504;2023-05-07T04:42:26;37.83;;;24.13;;
37715;SDS011;23562;50.540;12.504;2023-05-07T04:44:52;39.80;;;24.80;;
37715;SDS011;23562;50.540;12.504;2023-05-07T04:47:17;39.17;;;25.38;;
37715;SDS011;23562;50.540;12.504;2023-05-07T04:49:42;36.30;;;24.00;;
37715;SDS011;23562;50.540;12.504;2023-05-07T04:52:08;35.80;;;23.55;;
37715;SDS011;23562;50.540;12.504;2023-05-07T04:54:33;40.53;;;24.58;;
37715;SDS011;23562;50.540;12.504;2023-05-07T04:56:58;35.30;;;23.80;;
37715;SDS011;23562;50.540;12.504;2023-05-07T04:59:23;38.85;;;23.60;;
37715;SDS011;23562;50.540;12.504;2023-05-07T05:01:48;33.42;;;22.42;;
37715;SDS011;23562;50.540;12.504;2023-05-07T05:04:13;37.50;;;22.60;;
37715;SDS011;23562;50.540;12.504;2023-05-07T05:06:38;36.00;;;23.17;;
37715;SDS011;23562;50.540;12.504;2023-05-07T05:09:04;35.60;;;22.52;;
37715;SDS011;23562;50.540;12.504;2023-05-07T05:11:29;29.38;;;21.10;;
37715;SDS011;23562;50.540;12.504;2023-05-07T05:13:55;32.28;;;22.25;;
37715;SDS011;23562;50.540;12.504;2023-05-07T05:16:20;31.15;;;20.70;;
37715;SDS011;23562;50.540;12.504;2023-05-07T05:18:45;30.17;;;20.27;;
37715;SDS011;23562;50.540;12.504;2023-05-07T05:21:10;29.98;;;20.67;;
37715;SDS011;23562;50.540;12.504;2023-05-07T05:23:35;29.25;;;19.80;;
37715;SDS011;23562;50.540;12.504;2023-05-07T05:26:01;29.05;;;19.77;;
37715;SDS011;23562;50.540;12.504;2023-05-07T05:28:26;29.58;;;20.05;;
37715;SDS011;23562;50.540;12.504;2023-05-07T05:30:52;32.53;;;21.42;;
37715;SDS011;23562;50.540;12.504;2023-05-07T05:33:17;31.38;;;21.10;;
37715;SDS011;23562;50.540;12.504;2023-05-07T05:35:42;34.83;;;22.23;;
37715;SDS011;23562;50.540;12.504;2023-05-07T05:38:08;37.50;;;22.63;;
37715;SDS011;23562;50.540;12.504;2023-05-07T05:40:33;37.78;;;24.65;;
37715;SDS011;23562;50.540;12.504;2023-05-07T05:42:58;34.45;;;23.80;;
37715;SDS011;23562;50.540;12.504;2023-05-07T05:45:23;36.85;;;22.35;;
37715;SDS011;23562;50.540;12.504;2023-05-07T05:47:48;41.70;;;24.60;;
37715;SDS011;23562;50.540;12.504;2023-05-07T05:50:14;38.00;;;23.92;;
37715;SDS011;23562;50.540;12.504;2023-05-07T05:52:39;38.90;;;24.13;;
37715;SDS011;23562;50.540;12.504;2023-05-07T05:55:05;40.78;;;25.58;;
37715;SDS011;23562;50.540;12.504;2023-05-07T05:57:31;40.28;;;24.95;;
37715;SDS011;23562;50.540;12.504;2023-05-07T05:59:56;38.63;;;24.13;;
37715;SDS011;23562;50.540;12.504;2023-05-07T06:02:21;36.47;;;24.23;;
37715;SDS011;23562;50.540;12.504;2023-05-07T06:04:46;40.28;;;23.98;;
37715;SDS011;23562;50.540;12.504;2023-05-07T06:07:11;37.47;;;24.33;;
37715;SDS011;23562;50.540;12.504;2023-05-07T06:09:37;35.05;;;22.85;;
37715;SDS011;23562;50.540;12.504;2023-05-07T06:12:02;33.33;;;21.58;;
37715;SDS011;23562;50.540;12.504;2023-05-07T06:14:27;36.07;;;21.97;;
37715;SDS011;23562;50.540;12.504;2023-05-07T06:16:52;31.53;;;21.00;;
37715;SDS011;23562;50.540;12.504;2023-05-07T06:19:17;35.75;;;23.77;;
37715;SDS011;23562;50.540;12.504;2023-05-07T06:21:47;34.30;;;22.55;;
37715;SDS011;23562;50.540;12.504;2023-05-07T06:24:13;34.53;;;21.90;;
37715;SDS011;23562;50.540;12.504;2023-05-07T06:26:38;34.13;;;21.90;;
37715;SDS011;23562;50.540;12.504;2023-05-07T06:29:03;35.13;;;22.67;;
37715;SDS011;23562;50.540;12.504;2023-05-07T06:31:29;32.08;;;21.15;;
37715;SDS011;23562;50.540;12.504;2023-05-07T06:33:54;34.63;;;22.20;;
37715;SDS011;23562;50.540;12.504;2023-05-07T06:36:20;35.05;;;22.85;;
37715;SDS011;23562;50.540;12.504;2023-05-07T06:38:45;37.90;;;22.50;;
37715;SDS011;23562;50.540;12.504;2023-05-07T06:41:10;33.80;;;21.87;;
37715;SDS011;23562;50.540;12.504;2023-05-07T06:43:35;36.47;;;21.33;;
37715;SDS011;23562;50.540;12.504;2023-05-07T06:46:00;38.77;;;24.90;;
37715;SDS011;23562;50.540;12.504;2023-05-07T06:48:26;35.00;;;23.15;;
37715;SDS011;23562;50.540;12.504;2023-05-07T06:50:51;33.20;;;21.40;;
37715;SDS011;23562;50.540;12.504;2023-05-07T06:53:16;35.60;;;21.87;;
37715;SDS011;23562;50.540;12.504;2023-05-07T06:55:41;34.05;;;23.15;;
37715;SDS011;23562;50.540;12.504;2023-05-07T06:58:06;31.17;;;20.70;;
37715;SDS011;23562;50.540;12.504;2023-05-07T07:00:31;34.47;;;23.60;;
37715;SDS011;23562;50.540;12.504;2023-05-07T07:02:56;34.83;;;21.52;;
37715;SDS011;23562;50.540;12.504;2023-05-07T07:05:22;33.60;;;20.77;;
37715;SDS011;23562;50.540;12.504;2023-05-07T07:07:47;32.60;;;21.40;;
37715;SDS011;23562;50.540;12.504;2023-05-07T07:10:17;30.20;;;20.35;;
37715;SDS011;23562;50.540;12.504;2023-05-07T07:12:42;29.42;;;19.55;;
37715;SDS011;23562;50.540;12.504;2023-05-07T07:15:08;29.60;;;20.00;;
37715;SDS011;23562;50.540;12.504;2023-05-07T07:17:34;29.65;;;19.52;;
37715;SDS011;23562;50.540;12.504;2023-05-07T07:20:00;28.80;;;20.00;;
37715;SDS011;23562;50.540;12.504;2023-05-07T07:22:25;32.88;;;21.50;;
37715;SDS011;23562;50.540;12.504;2023-05-07T07:24:50;30.98;;;20.02;;
37715;SDS011;23562;50.540;12.504;2023-05-07T07:27:16;29.38;;;20.35;;
37715;SDS011;23562;50.540;12.504;2023-05-07T07:29:41;31.40;;;19.80;;
37715;SDS011;23562;50.540;12.504;2023-05-07T07:32:06;27.90;;;17.92;;
37715;SDS011;23562;50.540;12.504;2023-05-07T07:34:31;26.83;;;19.33;;
37715;SDS011;23562;50.540;12.504;2023-05-07T07:36:56;31.97;;;18.93;;
37715;SDS011;23562;50.540;12.504;2023-05-07T07:39:21;28.42;;;19.23;;
37715;SDS011;23562;50.540;12.504;2023-05-07T07:41:46;24.83;;;18.17;;
37715;SDS011;23562;50.540;12.504;2023-05-07T07:44:12;22.73;;;15.90;;
37715;SDS011;23562;50.540;12.504;2023-05-07T07:46:37;22.13;;;15.65;;
37715;SDS011;23562;50.540;12.504;2023-05-07T07:49:03;24.98;;;16.67;;
37715;SDS011;23562;50.540;12.504;2023-05-07T07:51:28;26.27;;;16.00;;
37715;SDS011;23562;50.540;12.504;2023-05-07T07:53:53;21.53;;;15.70;;
37715;SDS011;23562;50.540;12.504;2023-05-07T07:56:18;24.37;;;17.13;;
37715;SDS011;23562;50.540;12.504;2023-05-07T07:58:43;25.70;;;17.75;;
37715;SDS011;23562;50.540;12.504;2023-05-07T08:01:08;23.83;;;15.63;;
37715;SDS011;23562;50.540;12.504;2023-05-07T08:03:33;21.13;;;15.43;;
37715;SDS011;23562;50.540;12.504;2023-05-07T08:05:59;26.73;;;16.57;;
37715;SDS011;23562;50.540;12.504;2023-05-07T08:08:24;24.42;;;16.42;;
37715;SDS011;23562;50.540;12.504;2023-05-07T08:10:49;24.17;;;16.48;;
37715;SDS011;23562;50.540;12.504;2023-05-07T08:13:15;28.13;;;17.60;;
37715;SDS011;23562;50.540;12.504;2023-05-07T08:15:40;25.00;;;15.37;;
37715;SDS011;23562;50.540;12.504;2023-05-07T08:18:05;28.42;;;17.05;;
37715;SDS011;23562;50.540;12.504;2023-05-07T08:20:30;24.70;;;16.00;;
37715;SDS011;23562;50.540;12.504;2023-05-07T08:22:56;25.38;;;16.42;;
37715;SDS011;23562;50.540;12.504;2023-05-07T08:25:21;24.48;;;14.80;;
37715;SDS011;23562;50.540;12.504;2023-05-07T08:27:46;23.17;;;15.70;;
37715;SDS011;23562;50.540;12.504;2023-05-07T08:30:11;21.73;;;16.07;;
37715;SDS011;23562;50.540;12.504;2023-05-07T08:32:37;23.23;;;14.88;;
37715;SDS011;23562;50.540;12.504;2023-05-07T08:35:02;23.38;;;14.73;;
37715;SDS011;23562;50.540;12.504;2023-05-07T08:37:27;19.92;;;14.25;;
37715;SDS011;23562;50.540;12.504;2023-05-07T08:39:52;20.23;;;14.63;;
37715;SDS011;23562;50.540;12.504;2023-05-07T08:42:17;19.97;;;13.57;;
37715;SDS011;23562;50.540;12.504;2023-05-07T08:44:44;19.38;;;13.30;;
37715;SDS011;23562;50.540;12.504;2023-05-07T08:47:11;18.85;;;12.50;;
37715;SDS011;23562;50.540;12.504;2023-05-07T08:49:36;21.90;;;13.87;;
37715;SDS011;23562;50.540;12.504;2023-05-07T08:52:02;20.87;;;13.40;;
37715;SDS011;23562;50.540;12.504;2023-05-07T08:54:27;21.27;;;13.83;;
37715;SDS011;23562;50.540;12.504;2023-05-07T08:56:52;23.67;;;14.73;;
37715;SDS011;23562;50.540;12.504;2023-05-07T08:59:17;20.90;;;14.50;;
37715;SDS011;23562;50.540;12.504;2023-05-07T09:01:43;18.67;;;12.65;;
37715;SDS011;23562;50.540;12.504;2023-05-07T09:04:08;20.75;;;14.32;;
37715;SDS011;23562;50.540;12.504;2023-05-07T09:06:34;21.67;;;13.45;;
37715;SDS011;23562;50.540;12.504;2023-05-07T09:09:00;18.08;;;12.63;;
37715;SDS011;23562;50.540;12.504;2023-05-07T09:11:26;19.15;;;12.80;;
37715;SDS011;23562;50.540;12.504;2023-05-07T09:13:54;18.30;;;12.57;;
37715;SDS011;23562;50.540;12.504;2023-05-07T09:16:26;18.27;;;12.50;;
37715;SDS011;23562;50.540;12.504;2023-05-07T09:18:51;17.57;;;12.80;;
37715;SDS011;23562;50.540;12.504;2023-05-07T09:21:17;18.75;;;13.38;;
37715;SDS011;23562;50.540;12.504;2023-05-07T09:23:42;17.35;;;12.27;;
37715;SDS011;23562;50.540;12.504;2023-05-07T09:26:08;17.60;;;11.50;;
37715;SDS011;23562;50.540;12.504;2023-05-07T09:28:37;16.20;;;11.07;;
37715;SDS011;23562;50.540;12.504;2023-05-07T09:31:03;18.77;;;12.48;;
37715;SDS011;23562;50.540;12.504;2023-05-07T09:33:28;17.08;;;11.80;;
37715;SDS011;23562;50.540;12.504;2023-05-07T09:35:54;16.25;;;10.95;;
37715;SDS011;23562;50.540;12.504;2023-05-07T09:38:19;12.95;;;9.38;;
37715;SDS011;23562;50.540;12.504;2023-05-07T09:40:46;13.15;;;9.32;;
37715;SDS011;23562;50.540;12.504;2023-05-07T09:43:11;17.00;;;11.23;;
37715;SDS011;23562;50.540;12.504;2023-05-07T09:45:37;15.48;;;10.52;;
37715;SDS011;23562;50.540;12.504;2023-05-07T09:48:04;15.27;;;11.50;;
37715;SDS011;23562;50.540;12.504;2023-05-07T09:50:30;17.30;;;11.43;;
37715;SDS011;23562;50.540;12.504;2023-05-07T09:52:57;15.40;;;10.77;;
37715;SDS011;23562;50.540;12.504;2023-05-07T09:55:23;14.38;;;9.95;;
37715;SDS011;23562;50.540;12.504;2023-05-07T09:57:52;14.70;;;9.65;;
37715;SDS011;23562;50.540;12.504;2023-05-07T10:00:19;17.08;;;11.57;;
37715;SDS011;23562;50.540;12.504;2023-05-07T10:02:45;13.32;;;10.27;;
37715;SDS011;23562;50.540;12.504;2023-05-07T10:05:13;14.73;;;9.75;;
37715;SDS011;23562;50.540;12.504;2023-05-07T10:07:39;15.45;;;10.35;;
37715;SDS011;23562;50.540;12.504;2023-05-07T10:10:04;13.15;;;9.38;;
37715;SDS011;23562;50.540;12.504;2023-05-07T10:12:30;13.27;;;8.95;;
37715;SDS011;23562;50.540;12.504;2023-05-07T10:15:02;14.73;;;9.88;;
37715;SDS011;23562;50.540;12.504;2023-05-07T10:17:27;13.80;;;9.10;;
37715;SDS011;23562;50.540;12.504;2023-05-07T10:19:53;11.68;;;8.25;;
37715;SDS011;23562;50.540;12.504;2023-05-07T10:22:18;12.60;;;9.80;;
37715;SDS011;23562;50.540;12.504;2023-05-07T10:24:44;12.93;;;9.55;;
37715;SDS011;23562;50.540;12.504;2023-05-07T10:27:10;15.43;;;9.32;;
37715;SDS011;23562;50.540;12.504;2023-05-07T10:29:37;13.25;;;9.30;;
37715;SDS011;23562;50.540;12.504;2023-05-07T10:34:32;13.13;;;9.52;;
37715;SDS011;23562;50.540;12.504;2023-05-07T10:36:59;13.05;;;9.00;;
37715;SDS011;23562;50.540;12.504;2023-05-07T10:39:25;14.38;;;8.65;;
37715;SDS011;23562;50.540;12.504;2023-05-07T10:41:50;13.35;;;8.70;;
37715;SDS011;23562;50.540;12.504;2023-05-07T10:44:28;11.65;;;8.02;;
37715;SDS011;23562;50.540;12.504;2023-05-07T10:49:30;10.50;;;6.88;;
37715;SDS011;23562;50.540;12.504;2023-05-07T10:52:15;10.07;;;7.97;;
37715;SDS011;23562;50.540;12.504;2023-05-07T10:54:40;10.63;;;7.60;;
37715;SDS011;23562;50.540;12.504;2023-05-07T10:57:48;11.57;;;7.97;;
37715;SDS011;23562;50.540;12.504;2023-05-07T10:59:54;12.68;;;8.35;;
37715;SDS011;23562;50.540;12.504;2023-05-07T11:02:19;11.00;;;8.13;;
37715;SDS011;23562;50.540;12.504;2023-05-07T11:04:44;11.52;;;8.15;;
37715;SDS011;23562;50.540;12.504;2023-05-07T11:07:15;11.48;;;7.72;;
37715;SDS011;23562;50.540;12.504;2023-05-07T11:12:17;10.25;;;7.80;;
37715;SDS011;23562;50.540;12.504;2023-05-07T11:17:07;12.03;;;7.33;;
37715;SDS011;23562;50.540;12.504;2023-05-07T11:19:51;10.88;;;8.60;;
37715;SDS011;23562;50.540;12.504;2023-05-07T11:25:04;11.70;;;7.68;;
37715;SDS011;23562;50.540;12.504;2023-05-07T11:27:30;9.70;;;6.50;;
37715;SDS011;23562;50.540;12.504;2023-05-07T11:29:56;13.13;;;7.55;;
37715;SDS011;23562;50.540;12.504;2023-05-07T11:32:28;12.17;;;6.97;;
37715;SDS011;23562;50.540;12.504;2023-05-07T11:34:56;10.45;;;7.15;;
37715;SDS011;23562;50.540;12.504;2023-05-07T11:37:22;11.13;;;7.90;;
37715;SDS011;23562;50.540;12.504;2023-05-07T11:39:47;8.70;;;6.95;;
37715;SDS011;23562;50.540;12.504;2023-05-07T11:42:25;8.05;;;6.38;;
37715;SDS011;23562;50.540;12.504;2023-05-07T11:44:51;9.55;;;7.03;;
37715;SDS011;23562;50.540;12.504;2023-05-07T11:47:17;9.68;;;6.90;;
37715;SDS011;23562;50.540;12.504;2023-05-07T11:49:42;8.13;;;6.40;;
37715;SDS011;23562;50.540;12.504;2023-05-07T11:52:07;10.23;;;7.13;;
37715;SDS011;23562;50.540;12.504;2023-05-07T11:54:36;7.90;;;6.65;;
37715;SDS011;23562;50.540;12.504;2023-05-07T11:57:01;10.15;;;6.53;;
37715;SDS011;23562;50.540;12.504;2023-05-07T11:59:27;10.52;;;6.45;;
37715;SDS011;23562;50.540;12.504;2023-05-07T12:01:52;9.15;;;6.82;;
37715;SDS011;23562;50.540;12.504;2023-05-07T12:04:19;9.40;;;7.28;;
37715;SDS011;23562;50.540;12.504;2023-05-07T12:06:45;8.07;;;6.07;;
37715;SDS011;23562;50.540;12.504;2023-05-07T12:09:10;9.30;;;6.60;;
37715;SDS011;23562;50.540;12.504;2023-05-07T12:11:36;8.38;;;6.35;;
37715;SDS011;23562;50.540;12.504;2023-05-07T12:14:04;8.25;;;6.47;;
37715;SDS011;23562;50.540;12.504;2023-05-07T12:16:29;8.68;;;6.38;;
37715;SDS011;23562;50.540;12.504;2023-05-07T12:18:55;8.48;;;6.75;;
37715;SDS011;23562;50.540;12.504;2023-05-07T12:21:20;9.13;;;6.57;;
37715;SDS011;23562;50.540;12.504;2023-05-07T12:23:45;9.23;;;6.07;;
37715;SDS011;23562;50.540;12.504;2023-05-07T12:26:11;8.07;;;5.95;;
37715;SDS011;23562;50.540;12.504;2023-05-07T12:28:37;9.33;;;6.87;;
37715;SDS011;23562;50.540;12.504;2023-05-07T12:31:02;7.30;;;5.97;;
37715;SDS011;23562;50.540;12.504;2023-05-07T12:33:28;9.85;;;6.95;;
37715;SDS011;23562;50.540;12.504;2023-05-07T12:35:54;9.40;;;6.73;;
37715;SDS011;23562;50.540;12.504;2023-05-07T12:38:20;11.63;;;6.40;;
37715;SDS011;23562;50.540;12.504;2023-05-07T12:40:48;11.00;;;7.38;;
37715;SDS011;23562;50.540;12.504;2023-05-07T12:45:42;9.20;;;6.82;;
37715;SDS011;23562;50.540;12.504;2023-05-07T12:48:07;9.20;;;6.13;;
37715;SDS011;23562;50.540;12.504;2023-05-07T12:50:34;10.45;;;6.53;;
37715;SDS011;23562;50.540;12.504;2023-05-07T12:52:59;7.53;;;6.30;;
37715;SDS011;23562;50.540;12.504;2023-05-07T12:55:25;9.07;;;6.18;;
37715;SDS011;23562;50.540;12.504;2023-05-07T12:57:50;7.22;;;6.10;;
37715;SDS011;23562;50.540;12.504;2023-05-07T13:00:16;6.93;;;6.07;;
37715;SDS011;23562;50.540;12.504;2023-05-07T13:02:42;7.93;;;6.25;;
37715;SDS011;23562;50.540;12.504;2023-05-07T13:05:09;7.60;;;6.38;;
37715;SDS011;23562;50.540;12.504;2023-05-07T13:07:34;8.75;;;6.25;;
37715;SDS011;23562;50.540;12.504;2023-05-07T13:09:59;8.10;;;5.63;;
37715;SDS011;23562;50.540;12.504;2023-05-07T13:12:25;7.80;;;5.88;;
37715;SDS011;23562;50.540;12.504;2023-05-07T13:14:50;8.20;;;5.90;;
37715;SDS011;23562;50.540;12.504;2023-05-07T13:17:15;6.90;;;6.20;;
37715;SDS011;23562;50.540;12.504;2023-05-07T13:19:40;7.22;;;5.70;;
37715;SDS011;23562;50.540;12.504;2023-05-07T13:22:05;9.93;;;6.40;;
37715;SDS011;23562;50.540;12.504;2023-05-07T13:24:30;7.35;;;6.53;;
37715;SDS011;23562;50.540;12.504;2023-05-07T13:26:55;6.95;;;5.57;;
37715;SDS011;23562;50.540;12.504;2023-05-07T13:29:21;8.85;;;5.88;;
37715;SDS011;23562;50.540;12.504;2023-05-07T13:31:53;5.43;;;4.75;;
37715;SDS011;23562;50.540;12.504;2023-05-07T13:34:19;5.45;;;4.82;;
37715;SDS011;23562;50.540;12.504;2023-05-07T13:36:44;5.53;;;5.03;;
37715;SDS011;23562;50.540;12.504;2023-05-07T13:39:09;6.90;;;5.43;;
37715;SDS011;23562;50.540;12.504;2023-05-07T13:41:34;6.70;;;5.60;;
37715;SDS011;23562;50.540;12.504;2023-05-07T13:43:59;6.95;;;5.22;;
37715;SDS011;23562;50.540;12.504;2023-05-07T13:46:24;6.57;;;5.57;;
37715;SDS011;23562;50.540;12.504;2023-05-07T13:48:50;6.00;;;5.40;;
37715;SDS011;23562;50.540;12.504;2023-05-07T13:51:16;6.30;;;5.70;;
37715;SDS011;23562;50.540;12.504;2023-05-07T13:53:41;6.43;;;5.72;;
37715;SDS011;23562;50.540;12.504;2023-05-07T13:56:07;6.27;;;5.37;;
37715;SDS011;23562;50.540;12.504;2023-05-07T13:58:32;6.23;;;5.40;;
37715;SDS011;23562;50.540;12.504;2023-05-07T14:00:57;6.53;;;5.93;;
37715;SDS011;23562;50.540;12.504;2023-05-07T14:03:22;6.38;;;5.57;;
37715;SDS011;23562;50.540;12.504;2023-05-07T14:05:47;6.93;;;5.63;;
37715;SDS011;23562;50.540;12.504;2023-05-07T14:08:12;6.17;;;5.37;;
37715;SDS011;23562;50.540;12.504;2023-05-07T14:10:39;6.32;;;5.40;;
37715;SDS011;23562;50.540;12.504;2023-05-07T14:13:04;6.78;;;5.28;;
37715;SDS011;23562;50.540;12.504;2023-05-07T14:15:29;7.97;;;5.25;;
37715;SDS011;23562;50.540;12.504;2023-05-07T14:17:54;5.70;;;5.10;;
37715;SDS011;23562;50.540;12.504;2023-05-07T14:20:19;8.30;;;5.53;;
37715;SDS011;23562;50.540;12.504;2023-05-07T14:22:45;6.20;;;5.60;;